Pawcatuck, Connecticut
Current Conditions -  °F | °C
As of 12:53 AM on Tuesday 21 Oct 2014 (Local Time) from KWST Reporting Station
Overcast Overcast  
Wind Chill: 49°   Ceiling: 3800
Heat Index: 49°   Visibility: 10mi
Dew Point: 45°   Wind: 3mph
Humidity: 86%   Direction: 360°N
Pressure: 30"   Gusts: NA
Location:  41.38°N, 71.84°W
Report Text: KWST 210453Z AUTO 36003KT 10SM SCT031 BKN038 OVC065 09/07 A3000 RMK AO2 RAE01B28E46 SLP159 P0000 T00940072 401501006
Loading
Personal Weather Stations






























Interactive Weather Map
Tropical Storm Tracking
New forecast layout! Learn more

10-Day Weather Forecast

Advertisements
Track Severe Weather on mobile